Search for airport 
image banner adimage banner adimage banner ad
image banner ad

20CA - Clayton

Located in Blythe, United States

ICAO - 20CA, IATA -

Data provided by Airmate  

General information

Coordinates: N33°36'13" W114°38'40"
Elevation is 261 feet MSL.
Magnetic variation is 13° East
View others Airports in California

Operational data

Special qualification required
Current time UTC:
Current local time:
Weather at : KBLH - Blythe ( 7 km )
METAR: KBLH 211252Z AUTO 16014KT 10SM 27/16 A2982 RMK AO2 SLP090 T02720161 $
TAF: KBLH 211120Z 2112/2212 18013KT P6SM SKC FM212000 20016G24KT P6SM SKC FM220400 22013KT P6SM FEW200 SCT250 FM220800 18008KT P6SM SCT150 BKN200
View NOTAMs / SUP AIP / TFR affecting this airport [VIEW]
Communications frequencies: [VIEW]

Runways:

Airport contact information

Address: Blythe United States

Satellite view of 20CA